Taylorsville, Mississippi
Current Conditions -  °F | °C
As of 6:55 AM on Wednesday 22 Oct 2014 (Local Time) from KPIB Reporting Station
Clear Clear  
Wind Chill: 54°   Ceiling: Unl
Heat Index: 54°   Visibility: 10mi
Dew Point: 48°   Wind: 6mph
Humidity: 82%   Direction: 360°N
Pressure: 30.1"   Gusts: NA
Location:  31.83°N, 89.43°W
Report Text: KPIB 221155Z AUTO 36005KT 10SM CLR 12/09 A3010 RMK AO1 10150 20120 52010
Loading
Personal Weather Stations






























Interactive Weather Map
Tropical Storm Tracking
New forecast layout! Learn more

10-Day Weather Forecast

Advertisements
Track Severe Weather on mobile